createdAt,value
2022-12-15T00:05:42.014Z,53.30
2022-12-15T00:06:56.717Z,55.20
2022-12-15T00:08:52.572Z,50.20
2022-12-15T00:12:11.196Z,53.90
2022-12-15T00:20:07.804Z,51.40
2022-12-15T00:23:04.445Z,50.10
2022-12-15T00:26:32.256Z,52.10
2022-12-15T00:29:48.861Z,51.40
2022-12-15T00:33:12.691Z,49.60
2022-12-15T00:39:03.906Z,53.10
2022-12-15T00:41:38.503Z,50.00
2022-12-15T00:44:23.478Z,50.00
2022-12-15T00:46:55.831Z,54.10
2022-12-15T00:50:00.902Z,50.90
2022-12-15T00:52:54.651Z,51.80
2022-12-15T00:55:47.263Z,53.10
2022-12-15T00:58:55.135Z,49.20
2022-12-15T01:02:06.529Z,47.20
2022-12-15T01:04:54.015Z,50.30
2022-12-15T01:07:40.603Z,54.30
2022-12-15T01:10:29.069Z,55.60
2022-12-15T01:13:19.764Z,56.30
2022-12-15T01:16:29.868Z,53.80
2022-12-15T01:19:19.334Z,57.00
2022-12-15T01:22:02.117Z,55.90
2022-12-15T01:25:40.646Z,57.10
2022-12-15T01:28:19.238Z,60.50
2022-12-15T01:31:35.952Z,54.80
2022-12-15T01:34:33.013Z,54.10
2022-12-15T01:37:22.331Z,53.50
2022-12-15T01:41:08.818Z,57.10
2022-12-15T01:43:53.568Z,57.90
2022-12-15T01:46:50.217Z,53.80
2022-12-15T01:50:21.907Z,55.20
2022-12-15T01:53:28.425Z,47.10
2022-12-15T01:56:07.619Z,50.70
2022-12-15T01:58:47.917Z,51.60
2022-12-15T02:01:23.125Z,49.90
2022-12-15T02:04:01.017Z,46.40
2022-12-15T02:08:28.106Z,50.80
2022-12-15T02:10:09.832Z,45.50
2022-12-15T02:17:08.735Z,50.10
2022-12-15T02:20:16.425Z,46.30
2022-12-15T02:23:09.816Z,51.60
2022-12-15T02:26:25.715Z,55.80
2022-12-15T02:29:19.047Z,56.50
2022-12-15T02:32:03.306Z,58.90
2022-12-15T02:35:23.215Z,51.10
2022-12-15T02:41:35.933Z,51.30
2022-12-15T02:44:20.323Z,54.10
2022-12-15T02:47:11.013Z,50.60
2022-12-15T02:50:33.777Z,49.80
2022-12-15T02:53:14.983Z,49.20
2022-12-15T02:56:09.832Z,57.40
2022-12-15T02:59:59.468Z,47.80
2022-12-15T03:02:34.865Z,49.50
2022-12-15T03:05:23.321Z,50.20
2022-12-15T03:08:07.127Z,51.70
2022-12-15T03:10:40.077Z,50.20
2022-12-15T03:13:07.022Z,51.70
2022-12-15T03:15:40.650Z,62.90
2022-12-15T03:18:19.652Z,54.00
2022-12-15T03:21:24.371Z,51.40
2022-12-15T03:24:09.232Z,53.80
2022-12-15T03:27:04.246Z,53.80
2022-12-15T03:30:06.028Z,63.60
2022-12-15T03:33:20.131Z,55.50
2022-12-15T03:36:20.092Z,52.90
2022-12-15T03:39:33.323Z,59.80
2022-12-15T03:42:44.267Z,50.60
2022-12-15T03:45:20.640Z,45.20
2022-12-15T03:47:57.187Z,47.60
2022-12-15T03:50:37.265Z,47.30
2022-12-15T03:53:25.862Z,45.30
2022-12-15T03:56:36.857Z,42.90
2022-12-15T03:59:18.873Z,42.20
2022-12-15T04:02:12.753Z,44.10
2022-12-15T04:04:56.228Z,46.00
2022-12-15T04:07:28.674Z,46.60
2022-12-15T04:10:16.446Z,38.50
2022-12-15T04:16:14.888Z,44.10
2022-12-15T04:19:14.641Z,45.50
2022-12-15T04:21:58.881Z,42.70
2022-12-15T04:24:46.673Z,46.50
2022-12-15T04:27:37.148Z,43.90
2022-12-15T04:30:24.213Z,43.90
2022-12-15T04:33:09.643Z,37.60
2022-12-15T04:35:55.315Z,44.40
2022-12-15T04:41:47.141Z,38.50
2022-12-15T04:44:41.950Z,36.30
2022-12-15T04:47:38.429Z,36.00
2022-12-15T04:50:27.425Z,34.50
2022-12-15T04:53:28.999Z,39.80
2022-12-15T04:56:19.644Z,37.70
2022-12-15T04:59:11.266Z,38.80
2022-12-15T05:06:22.656Z,39.40
2022-12-15T05:09:10.916Z,39.70
2022-12-15T05:11:59.890Z,35.70
2022-12-15T05:14:49.474Z,31.80
2022-12-15T05:17:43.554Z,31.20
2022-12-15T05:20:33.747Z,34.30
2022-12-15T05:23:30.892Z,34.10
2022-12-15T05:26:22.051Z,30.90
2022-12-15T05:29:14.889Z,30.90
2022-12-15T05:31:59.755Z,53.30
2022-12-15T05:34:36.293Z,28.30
2022-12-15T05:37:05.278Z,33.60
2022-12-15T05:39:32.831Z,31.20
2022-12-15T05:42:00.347Z,33.00
2022-12-15T05:44:28.024Z,31.40
2022-12-15T05:46:55.086Z,30.30
2022-12-15T05:49:31.256Z,29.50
2022-12-15T05:52:16.614Z,26.60
2022-12-15T05:55:16.728Z,30.60
2022-12-15T05:57:53.453Z,26.60
2022-12-15T06:03:09.932Z,33.80
2022-12-15T06:05:44.504Z,28.40
2022-12-15T06:08:11.476Z,29.50
2022-12-15T06:10:38.299Z,36.60
2022-12-15T06:13:11.962Z,42.10
2022-12-15T06:15:54.364Z,39.30
2022-12-15T06:18:21.380Z,37.30
2022-12-15T06:20:49.642Z,35.70
2022-12-15T06:23:16.779Z,34.60
2022-12-15T06:25:44.896Z,34.20
2022-12-15T06:28:11.879Z,35.00
2022-12-15T06:30:39.071Z,40.20
2022-12-15T06:33:06.788Z,32.40
2022-12-15T06:35:38.299Z,34.00
2022-12-15T06:38:06.486Z,36.70
2022-12-15T06:40:37.819Z,42.40
2022-12-15T06:43:08.629Z,44.80
2022-12-15T06:45:38.082Z,46.00
2022-12-15T06:48:05.468Z,44.80
2022-12-15T06:50:35.043Z,39.50
2022-12-15T06:53:02.268Z,39.80
2022-12-15T06:55:29.322Z,35.20
2022-12-15T06:58:11.951Z,31.70
2022-12-15T07:00:49.213Z,33.50
2022-12-15T07:03:18.759Z,36.60
2022-12-15T07:05:47.590Z,46.20
2022-12-15T07:08:15.864Z,42.60
2022-12-15T07:10:46.309Z,46.80
2022-12-15T07:13:13.698Z,42.40
2022-12-15T07:15:44.652Z,37.10
2022-12-15T07:18:11.643Z,36.70
2022-12-15T07:20:38.448Z,32.00
2022-12-15T07:23:09.034Z,34.40
2022-12-15T07:28:06.730Z,34.70
2022-12-15T07:30:38.942Z,48.50
2022-12-15T07:33:05.931Z,39.80
2022-12-15T07:35:34.062Z,42.90
2022-12-15T07:38:01.085Z,39.10
2022-12-15T07:40:30.397Z,40.20
2022-12-15T07:42:57.241Z,37.90
2022-12-15T07:45:24.313Z,37.90
2022-12-15T07:47:55.553Z,39.00
2022-12-15T07:50:22.622Z,36.40
2022-12-15T07:52:50.982Z,39.60
2022-12-15T07:55:19.277Z,37.80
2022-12-15T07:58:04.134Z,36.60
2022-12-15T08:00:43.798Z,39.10
2022-12-15T08:03:13.971Z,35.70
2022-12-15T08:05:40.894Z,36.10
2022-12-15T08:08:13.719Z,34.00
2022-12-15T08:10:42.305Z,39.90
2022-12-15T08:13:09.354Z,43.10
2022-12-15T08:15:36.917Z,41.70
2022-12-15T08:18:05.294Z,36.40
2022-12-15T08:20:33.310Z,34.60
2022-12-15T08:23:00.437Z,36.80
2022-12-15T08:25:28.191Z,31.40
2022-12-15T08:27:56.337Z,33.80
2022-12-15T08:30:23.959Z,39.10
2022-12-15T08:32:52.229Z,35.70
2022-12-15T08:35:46.869Z,33.20
2022-12-15T08:38:06.222Z,39.70
2022-12-15T08:40:33.344Z,40.60
2022-12-15T08:43:02.859Z,38.20
2022-12-15T08:45:35.423Z,38.30
2022-12-15T08:48:02.814Z,36.50
2022-12-15T08:50:30.026Z,38.90
2022-12-15T08:53:29.727Z,37.40
2022-12-15T08:55:49.196Z,31.30
2022-12-15T08:58:16.490Z,34.90
2022-12-15T09:00:43.283Z,34.00
2022-12-15T09:03:10.129Z,40.10
2022-12-15T09:05:38.803Z,39.20
2022-12-15T09:08:06.939Z,41.10
2022-12-15T09:10:33.888Z,42.40
2022-12-15T09:13:00.900Z,39.90
2022-12-15T09:15:59.945Z,39.10
2022-12-15T09:18:13.831Z,34.10
2022-12-15T09:20:40.437Z,28.10
2022-12-15T09:23:06.949Z,34.60
2022-12-15T09:25:33.520Z,16.80
2022-12-15T09:28:00.200Z,27.90
2022-12-15T09:30:26.822Z,40.00
2022-12-15T09:32:53.472Z,31.50
2022-12-15T09:35:20.168Z,36.20
2022-12-15T09:37:51.573Z,32.30
2022-12-15T09:40:19.516Z,37.10
2022-12-15T09:43:04.947Z,36.90
2022-12-15T09:45:42.985Z,36.10
2022-12-15T09:48:16.655Z,34.20
2022-12-15T09:50:47.300Z,29.00
2022-12-15T09:53:45.401Z,36.40
2022-12-15T09:56:14.889Z,28.20
2022-12-15T09:59:09.200Z,32.90
2022-12-15T10:02:00.862Z,16.70
2022-12-15T10:04:45.757Z,35.20
2022-12-15T10:07:30.551Z,35.00
2022-12-15T10:09:57.527Z,37.70
2022-12-15T10:12:29.955Z,30.30
2022-12-15T10:15:24.619Z,38.40
2022-12-15T10:18:15.414Z,34.80
2022-12-15T10:20:42.397Z,42.50
2022-12-15T10:23:13.233Z,33.60
2022-12-15T10:26:03.175Z,33.80
2022-12-15T10:28:52.076Z,32.90
2022-12-15T10:31:30.878Z,38.30
2022-12-15T10:34:10.652Z,35.20
2022-12-15T10:36:37.369Z,41.50
2022-12-15T10:39:04.032Z,36.10
2022-12-15T10:41:33.087Z,31.90
2022-12-15T10:44:02.083Z,29.40
2022-12-15T10:46:31.214Z,32.60
2022-12-15T10:49:07.093Z,37.40
2022-12-15T10:51:44.302Z,35.20
2022-12-15T10:54:14.254Z,34.50
2022-12-15T10:57:14.326Z,39.20
2022-12-15T10:59:50.404Z,40.30
2022-12-15T11:05:15.364Z,39.10
2022-12-15T11:07:47.054Z,37.70
2022-12-15T11:10:20.855Z,43.90
2022-12-15T11:12:59.323Z,35.90
2022-12-15T11:15:37.406Z,40.20
2022-12-15T11:18:07.179Z,39.20
2022-12-15T11:20:39.465Z,32.20
2022-12-15T11:23:23.224Z,32.40
2022-12-15T11:26:31.666Z,31.70
2022-12-15T11:29:07.231Z,33.90
2022-12-15T11:31:41.645Z,38.60
2022-12-15T11:34:17.815Z,43.00
2022-12-15T11:36:58.057Z,46.00
2022-12-15T11:39:50.314Z,49.50
2022-12-15T11:42:55.897Z,44.60
2022-12-15T11:45:38.434Z,39.80
2022-12-15T11:48:20.513Z,43.10
2022-12-15T11:51:38.360Z,38.20
2022-12-15T11:54:29.789Z,39.80
2022-12-15T11:57:05.532Z,43.20
2022-12-15T12:00:19.493Z,47.00
2022-12-15T12:03:23.641Z,41.10
2022-12-15T12:06:11.725Z,48.10
2022-12-15T12:09:29.912Z,51.10
2022-12-15T12:12:22.897Z,46.80
2022-12-15T12:17:59.882Z,46.90
2022-12-15T12:20:37.452Z,44.80
2022-12-15T12:23:36.185Z,40.80
2022-12-15T12:26:48.736Z,40.30
2022-12-15T12:29:57.644Z,47.20
2022-12-15T12:33:25.041Z,40.80
2022-12-15T12:36:12.788Z,45.60
2022-12-15T12:39:01.969Z,47.80
2022-12-15T12:41:47.590Z,51.40
2022-12-15T12:44:27.658Z,43.90
2022-12-15T12:47:29.119Z,48.10
2022-12-15T12:50:47.958Z,54.40
2022-12-15T12:53:41.528Z,47.70
2022-12-15T12:56:43.801Z,48.90
2022-12-15T12:59:42.147Z,39.60
2022-12-15T13:02:55.080Z,40.20
2022-12-15T13:05:31.374Z,36.60
2022-12-15T13:15:18.570Z,34.40
2022-12-15T13:18:12.156Z,47.10
2022-12-15T13:20:52.825Z,43.10
2022-12-15T13:23:50.479Z,43.90
2022-12-15T13:26:24.312Z,41.90
2022-12-15T13:29:01.097Z,39.10
2022-12-15T13:31:49.734Z,44.50
2022-12-15T13:35:37.337Z,44.10
2022-12-15T13:38:46.845Z,40.30
2022-12-15T13:45:19.215Z,36.70
2022-12-15T13:48:20.053Z,35.80
2022-12-15T13:51:15.628Z,30.40
2022-12-15T13:53:53.090Z,25.90
2022-12-15T13:56:44.887Z,28.30
2022-12-15T13:59:57.317Z,32.00
2022-12-15T14:02:36.406Z,29.30
2022-12-15T14:05:29.584Z,31.40
2022-12-15T14:08:04.568Z,33.30
2022-12-15T14:10:38.798Z,39.90
2022-12-15T14:13:32.016Z,39.20
2022-12-15T14:16:20.111Z,32.30
2022-12-15T14:19:11.542Z,30.60
2022-12-15T14:22:58.796Z,28.90
2022-12-15T14:25:30.725Z,32.30
2022-12-15T14:28:21.145Z,32.40
2022-12-15T14:31:33.175Z,32.60
2022-12-15T14:34:30.031Z,34.20
2022-12-15T14:40:42.451Z,34.00
2022-12-15T14:44:36.353Z,32.00
2022-12-15T14:47:26.545Z,34.90
2022-12-15T14:54:53.346Z,38.30
2022-12-15T14:57:27.810Z,39.60
2022-12-15T15:00:20.338Z,38.10
2022-12-15T15:02:47.479Z,36.60
2022-12-15T15:03:04.593Z,33.20
2022-12-15T15:03:15.406Z,41.30
2022-12-15T15:05:27.178Z,37.60
2022-12-15T15:08:27.217Z,37.30
2022-12-15T15:11:48.288Z,36.90
2022-12-15T15:14:56.375Z,34.30
2022-12-15T15:17:42.363Z,37.50
2022-12-15T15:20:39.754Z,40.20
2022-12-15T15:23:06.639Z,38.20
2022-12-15T15:26:31.935Z,38.90
2022-12-15T15:28:55.328Z,42.50
2022-12-15T15:33:37.258Z,44.80
2022-12-15T15:35:15.434Z,38.30
2022-12-15T15:37:46.271Z,35.30
2022-12-15T15:41:00.137Z,41.30
2022-12-15T15:43:38.574Z,35.50
2022-12-15T15:47:14.905Z,38.60
2022-12-15T15:49:49.584Z,41.30
2022-12-15T15:52:16.629Z,41.80
2022-12-15T15:54:47.202Z,48.30
2022-12-15T15:57:27.016Z,49.70
2022-12-15T15:59:54.181Z,48.90
2022-12-15T16:02:47.511Z,51.70
2022-12-15T16:05:39.869Z,50.10
2022-12-15T16:08:30.005Z,51.00
2022-12-15T16:11:02.391Z,49.00
2022-12-15T16:17:47.064Z,43.60
2022-12-15T16:20:21.226Z,43.90
2022-12-15T16:20:38.886Z,48.70
2022-12-15T16:23:06.856Z,43.80
2022-12-15T16:25:52.408Z,47.50
2022-12-15T16:28:23.078Z,45.20
2022-12-15T16:33:54.653Z,44.50
2022-12-15T16:36:51.451Z,41.10
2022-12-15T16:39:40.467Z,46.30
2022-12-15T16:42:31.731Z,42.30
2022-12-15T16:45:00.896Z,40.20
2022-12-15T16:47:35.769Z,43.10
2022-12-15T16:50:26.425Z,40.70
2022-12-15T16:53:08.208Z,43.70
2022-12-15T16:55:40.108Z,51.30
2022-12-15T16:58:39.816Z,45.60
2022-12-15T17:01:29.381Z,50.30
2022-12-15T17:03:56.449Z,46.90
2022-12-15T17:06:23.435Z,49.60
2022-12-15T17:08:54.526Z,59.80
2022-12-15T17:11:23.686Z,51.30
2022-12-15T17:13:53.110Z,63.00
2022-12-15T17:16:25.539Z,61.30
2022-12-15T17:18:54.192Z,67.60
2022-12-15T17:21:28.458Z,68.10
2022-12-15T17:24:30.376Z,62.00
2022-12-15T17:27:02.828Z,59.10
2022-12-15T17:29:43.048Z,47.30
2022-12-15T17:32:21.735Z,49.50
2022-12-15T17:35:02.603Z,48.60
2022-12-15T17:38:10.581Z,50.60
2022-12-15T17:41:42.392Z,59.40
2022-12-15T17:44:48.664Z,57.40
2022-12-15T17:51:07.711Z,69.20
2022-12-15T17:53:57.728Z,70.50
2022-12-15T17:56:41.463Z,74.40
2022-12-15T17:59:18.283Z,63.00
2022-12-15T18:02:52.706Z,64.50
2022-12-15T18:05:30.022Z,61.60
2022-12-15T18:08:34.887Z,55.00
2022-12-15T18:12:03.674Z,55.30
2022-12-15T18:14:36.301Z,58.30
2022-12-15T18:17:31.698Z,60.60
2022-12-15T18:20:55.043Z,55.30
2022-12-15T18:24:00.622Z,64.30
2022-12-15T18:29:33.589Z,64.40
2022-12-15T18:32:29.983Z,68.60
2022-12-15T18:35:47.293Z,68.10
2022-12-15T18:38:57.700Z,68.10
2022-12-15T18:42:10.515Z,74.50
2022-12-15T18:45:09.002Z,71.30
2022-12-15T18:47:44.381Z,69.00
2022-12-15T18:50:20.544Z,71.30
2022-12-15T18:53:15.776Z,69.10
2022-12-15T18:56:17.235Z,72.10
2022-12-15T19:02:51.907Z,76.80
2022-12-15T19:06:25.937Z,69.70
2022-12-15T19:09:15.924Z,71.10
2022-12-15T19:12:08.396Z,73.50
2022-12-15T19:12:13.631Z,66.60
2022-12-15T19:14:50.928Z,70.80
2022-12-15T19:17:42.934Z,68.90
2022-12-15T19:20:55.809Z,69.50
2022-12-15T19:24:02.254Z,65.10
2022-12-15T19:27:05.907Z,66.00
2022-12-15T19:34:18.762Z,60.50
2022-12-15T19:40:52.982Z,60.70
2022-12-15T19:44:01.099Z,56.50
2022-12-15T19:53:43.192Z,54.10
2022-12-15T19:56:27.444Z,51.20
2022-12-15T19:59:09.361Z,45.50
2022-12-15T20:01:58.296Z,48.70
2022-12-15T20:04:32.932Z,45.90
2022-12-15T20:07:22.004Z,53.00
2022-12-15T20:09:58.709Z,53.30
2022-12-15T20:13:10.331Z,53.80
2022-12-15T20:16:23.625Z,49.90
2022-12-15T20:24:12.194Z,51.10
2022-12-15T20:26:45.018Z,51.80
2022-12-15T20:29:24.974Z,53.50
2022-12-15T20:32:49.572Z,53.50
2022-12-15T20:35:51.090Z,49.40
2022-12-15T20:38:38.043Z,58.80
2022-12-15T20:41:16.016Z,54.40
2022-12-15T20:48:24.731Z,43.50
2022-12-15T20:50:55.331Z,40.50
2022-12-15T20:55:42.433Z,45.00
2022-12-15T20:57:11.236Z,44.40
2022-12-15T21:00:23.515Z,40.10
2022-12-15T21:03:20.881Z,41.60
2022-12-15T21:06:14.243Z,39.70
2022-12-15T21:09:01.386Z,46.10
2022-12-15T21:11:50.854Z,44.40
2022-12-15T21:14:44.623Z,42.50
2022-12-15T21:21:56.373Z,39.80
2022-12-15T21:24:35.371Z,41.80
2022-12-15T21:27:03.774Z,51.60
2022-12-15T21:29:50.383Z,45.30
2022-12-15T21:32:43.456Z,51.00
2022-12-15T21:35:48.172Z,50.60
2022-12-15T21:38:26.766Z,55.50
2022-12-15T21:41:01.593Z,53.80
2022-12-15T21:43:38.891Z,59.50
2022-12-15T21:46:37.406Z,60.40
2022-12-15T21:49:17.912Z,57.70
2022-12-15T21:51:53.678Z,54.90
2022-12-15T21:55:16.767Z,60.00
2022-12-15T21:57:44.496Z,59.10
2022-12-15T22:00:47.793Z,58.70
2022-12-15T22:03:19.638Z,58.90
2022-12-15T22:06:07.536Z,54.10
2022-12-15T22:09:00.795Z,54.50
2022-12-15T22:11:36.139Z,54.90
2022-12-15T22:17:14.754Z,53.20
2022-12-15T22:19:47.659Z,42.90
2022-12-15T22:22:31.967Z,50.80
2022-12-15T22:25:06.837Z,47.10
2022-12-15T22:27:50.357Z,49.80
2022-12-15T22:30:26.853Z,49.40
2022-12-15T22:32:58.424Z,53.40
2022-12-15T22:35:33.588Z,50.00
2022-12-15T22:38:17.233Z,49.00
2022-12-15T22:40:56.416Z,48.30
2022-12-15T22:43:44.317Z,48.90
2022-12-15T22:46:14.882Z,50.80
2022-12-15T22:48:49.092Z,51.60
2022-12-15T22:51:22.647Z,53.70
2022-12-15T22:54:24.095Z,50.20
2022-12-15T22:57:23.725Z,51.90
2022-12-15T23:00:10.547Z,48.20
2022-12-15T23:02:50.211Z,44.60
2022-12-15T23:05:19.305Z,52.80
2022-12-15T23:08:09.486Z,49.40
2022-12-15T23:11:05.056Z,43.00
2022-12-15T23:13:34.597Z,47.10
2022-12-15T23:16:22.858Z,45.30
2022-12-15T23:19:09.747Z,45.70
2022-12-15T23:21:52.784Z,44.70
2022-12-15T23:24:20.955Z,40.30
2022-12-15T23:26:48.065Z,44.20
2022-12-15T23:29:21.850Z,39.30
2022-12-15T23:31:54.828Z,39.50
2022-12-15T23:34:25.986Z,38.50
2022-12-15T23:36:52.918Z,43.10
2022-12-15T23:39:22.110Z,38.10
2022-12-15T23:41:54.523Z,39.30
2022-12-15T23:44:22.850Z,40.20
2022-12-15T23:46:59.442Z,35.70
2022-12-15T23:49:28.938Z,43.30
2022-12-15T23:51:58.414Z,39.00
2022-12-15T23:54:35.144Z,39.30
